01:10
Airports
Links
Donate
Help keep this website running!
PayPal
Bitcoin
METAR
KLAX 230053Z 27013KT 10SM BKN008 17/14 A2991 RMK AO2 SLP127 T01720144 $
Current Weather Conditions at KLAX
IFR 00:53:00 23-05-17
Automated station
Altimeter:29.91 hg
Temp:17.2°c 63°f
Dew point:14.4°c 57°f
Wind:13 knots, 15 mph, 7 m/s, from 270°
Visibility:10.0 statute miles
800(BKN) Broken
Past METAR reports
IFR 00:04:00 23-05-17
Automated station
Altimeter:29.92 hg
Temp:18.3°c 64°f
Dew point:14.4°c 57°f
Wind:14 knots, 16.1 mph, 7 m/s, from 270°
Visibility:10.0 statute miles
25000(BKN) Broken
800(BKN) Broken
KLAX 230004Z 27014KT 10SM BKN008 BKN250 18/14 A2992 RMK AO2 T01830144 $
VFR 23:53:00 22-05-17
Automated station
Altimeter:29.92 hg
Temp:18.9°c 64°f
Dew point:14.4°c 57°f
Wind:13 knots, 15 mph, 7 m/s, from 270°
Visibility:10.0 statute miles
25000(FEW) A few
900(FEW) A few
KLAX 222353Z 27013KT 10SM FEW009 FEW250 19/14 A2992 RMK AO2 SLP131 T01890144 10206 20183 58013 $
VFR 22:53:00 22-05-17
Automated station
Altimeter:29.93 hg
Temp:19.4°c 66°f
Dew point:15.0°c 59°f
Wind:13 knots, 15 mph, 7 m/s, from 260°
Visibility:10.0 statute miles
25000(SCT) Scattered
10000(FEW) A few
900(FEW) A few
KLAX 222253Z 26013KT 10SM FEW009 FEW100 SCT250 19/15 A2993 RMK AO2 SLP135 T01940150 $
VFR 21:53:00 22-05-17
Automated station
Altimeter:29.95 hg
Temp:18.9°c 64°f
Dew point:14.4°c 57°f
Wind:11 knots, 12.7 mph, 6 m/s, from 260°
Visibility:10.0 statute miles
25000(SCT) Scattered
10000(FEW) A few
900(FEW) A few
KLAX 222153Z 26011KT 10SM FEW009 FEW100 SCT250 19/14 A2995 RMK AO2 SLP140 T01890144 $
VFR 20:53:00 22-05-17
Automated station
Altimeter:29.96 hg
Temp:19.4°c 66°f
Dew point:14.4°c 57°f
Wind:12 knots, 13.8 mph, 6 m/s, from 260°
Visibility:8.0 statute miles
16000(SCT) Scattered
8000(FEW) A few
900(FEW) A few
KLAX 222053Z 26012KT 8SM FEW009 FEW080 SCT160 19/14 A2996 RMK AO2 SLP143 T01940144 58007 $
VFR 19:53:00 22-05-17
Automated station
Altimeter:29.97 hg
Temp:18.9°c 64°f
Dew point:14.4°c 57°f
Wind:10 knots, 11.5 mph, 5 m/s, from 260°
Visibility:7.0 statute miles
14000(SCT) Scattered
900(FEW) A few
KLAX 221953Z 26010KT 7SM FEW009 SCT140 19/14 A2997 RMK AO2 SLP148 T01890144 $
TAF
KLAX 230022Z 2300/2406 27014KT P6SM BKN008 FM230200 26009KT 6SM BR BKN007 FM230500 25006KT 4SM BR OVC005 FM231000 VRB03KT 1 1/2SM BR OVC003 FM231500 VRB03KT 3SM BR OVC005 FM231700 27006KT 6SM HZ OVC008 FM232000 27012KT P6SM SKC FM240300 26007KT P6SM SKC FM240500 25005KT 6SM BR BKN008
Forecast at KLAX
00:00 23-05-17 to 02:00 23-05-17
Wind:14 Knots from 270°
Visibility:6.21 statute miles
800BKN Broken
FM 02:00 23-05-17 to 05:00 23-05-17
BR
Wind:9 Knots from 260°
Visibility:6.0 statute miles
700BKN Broken
FM 05:00 23-05-17 to 10:00 23-05-17
BR
Wind:6 Knots from 250°
Visibility:4.0 statute miles
500OVC Overcast
FM 10:00 23-05-17 to 15:00 23-05-17
BR
Wind:3 Knots from 360°
Visibility:1.5 statute miles
300OVC Overcast
FM 15:00 23-05-17 to 17:00 23-05-17
BR
Wind:3 Knots from 360°
Visibility:3.0 statute miles
500OVC Overcast
FM 17:00 23-05-17 to 20:00 23-05-17
HZ
Wind:6 Knots from 270°
Visibility:6.0 statute miles
800OVC Overcast
FM 20:00 23-05-17 to 03:00 24-05-17
Wind:12 Knots from 270°
Visibility:6.21 statute miles
SKC Clear
FM 03:00 24-05-17 to 05:00 24-05-17
Wind:7 Knots from 260°
Visibility:6.21 statute miles
SKC Clear
FM 05:00 24-05-17 to 06:00 24-05-17
BR
Wind:5 Knots from 250°
Visibility:6.0 statute miles
800BKN Broken